Terminal Aerodrome Forecast
Issued by NWS

Home | Current Version | Previous Version | Text Only | Print | Product List | Glossary On
Versions: 1 2 3 4 5 6 7 8 9 10 11 12
000
FTUS45 KRIW 292300
TAFCPR
TAF
KCPR 292339Z 3000/3024 03011KT P6SM -SHRA SCT040 OVC060
     FM300300 09011KT P6SM VCSH SCT050 OVC070
     FM300900 07008KT P6SM SCT100 BKN150
     FM301900 05008KT P6SM VCSH SCT060 BKN100=

USA.gov is the U.S. government's official web portal to all federal, state and local government web resources and services.